sensor_id;sensor_type;location;lat;lon;timestamp;temperature;humidity
80232;DHT22;70197;42.124;24.752;2023-08-21T00:01:31;25.70;42.70
80232;DHT22;70197;42.124;24.752;2023-08-21T00:03:56;25.60;43.50
80232;DHT22;70197;42.124;24.752;2023-08-21T00:06:22;25.60;43.10
80232;DHT22;70197;42.124;24.752;2023-08-21T00:08:48;25.60;43.40
80232;DHT22;70197;42.124;24.752;2023-08-21T00:11:13;25.50;43.50
80232;DHT22;70197;42.124;24.752;2023-08-21T00:13:39;25.50;43.70
80232;DHT22;70197;42.124;24.752;2023-08-21T00:16:05;25.50;43.70
80232;DHT22;70197;42.124;24.752;2023-08-21T00:18:31;25.50;43.20
80232;DHT22;70197;42.124;24.752;2023-08-21T00:20:56;25.50;43.60
80232;DHT22;70197;42.124;24.752;2023-08-21T00:23:22;25.50;44.20
80232;DHT22;70197;42.124;24.752;2023-08-21T00:25:48;25.40;42.80
80232;DHT22;70197;42.124;24.752;2023-08-21T00:28:14;25.30;43.20
80232;DHT22;70197;42.124;24.752;2023-08-21T00:30:41;25.30;42.80
80232;DHT22;70197;42.124;24.752;2023-08-21T00:33:07;25.30;43.80
80232;DHT22;70197;42.124;24.752;2023-08-21T00:35:33;25.20;43.20
80232;DHT22;70197;42.124;24.752;2023-08-21T00:37:58;25.30;43.30
80232;DHT22;70197;42.124;24.752;2023-08-21T00:40:24;25.30;43.30
80232;DHT22;70197;42.124;24.752;2023-08-21T00:42:49;25.20;42.80
80232;DHT22;70197;42.124;24.752;2023-08-21T00:45:15;25.30;43.60
80232;DHT22;70197;42.124;24.752;2023-08-21T00:47:42;25.20;43.30
80232;DHT22;70197;42.124;24.752;2023-08-21T00:50:09;25.20;44.40
80232;DHT22;70197;42.124;24.752;2023-08-21T00:52:40;25.20;44.20
80232;DHT22;70197;42.124;24.752;2023-08-21T00:55:08;25.20;43.60
80232;DHT22;70197;42.124;24.752;2023-08-21T00:57:35;25.20;44.10
80232;DHT22;70197;42.124;24.752;2023-08-21T01:00:02;25.20;43.90
80232;DHT22;70197;42.124;24.752;2023-08-21T01:02:29;25.20;43.90
80232;DHT22;70197;42.124;24.752;2023-08-21T01:04:55;25.20;43.90
80232;DHT22;70197;42.124;24.752;2023-08-21T01:07:21;25.20;44.30
80232;DHT22;70197;42.124;24.752;2023-08-21T01:09:54;25.10;44.30
80232;DHT22;70197;42.124;24.752;2023-08-21T01:12:35;25.00;43.60
80232;DHT22;70197;42.124;24.752;2023-08-21T01:15:06;25.00;43.10
80232;DHT22;70197;42.124;24.752;2023-08-21T01:17:36;25.00;44.20
80232;DHT22;70197;42.124;24.752;2023-08-21T01:20:03;25.00;43.70
80232;DHT22;70197;42.124;24.752;2023-08-21T01:22:41;25.00;43.20
80232;DHT22;70197;42.124;24.752;2023-08-21T01:25:11;25.00;43.80
80232;DHT22;70197;42.124;24.752;2023-08-21T01:27:41;24.90;43.20
80232;DHT22;70197;42.124;24.752;2023-08-21T01:30:08;24.90;44.10
80232;DHT22;70197;42.124;24.752;2023-08-21T01:32:57;24.80;44.20
80232;DHT22;70197;42.124;24.752;2023-08-21T01:35:25;24.90;44.90
80232;DHT22;70197;42.124;24.752;2023-08-21T01:37:52;24.80;44.20
80232;DHT22;70197;42.124;24.752;2023-08-21T01:40:24;24.70;44.30
80232;DHT22;70197;42.124;24.752;2023-08-21T01:42:52;24.70;44.50
80232;DHT22;70197;42.124;24.752;2023-08-21T01:45:18;24.70;45.30
80232;DHT22;70197;42.124;24.752;2023-08-21T01:47:43;24.70;44.80
80232;DHT22;70197;42.124;24.752;2023-08-21T01:50:09;24.70;44.80
80232;DHT22;70197;42.124;24.752;2023-08-21T01:52:35;24.70;45.60
80232;DHT22;70197;42.124;24.752;2023-08-21T01:55:00;24.80;44.60
80232;DHT22;70197;42.124;24.752;2023-08-21T01:57:26;24.80;45.20
80232;DHT22;70197;42.124;24.752;2023-08-21T01:59:52;24.70;44.70
80232;DHT22;70197;42.124;24.752;2023-08-21T02:02:17;24.70;44.70
80232;DHT22;70197;42.124;24.752;2023-08-21T02:04:43;24.70;45.00
80232;DHT22;70197;42.124;24.752;2023-08-21T02:07:09;24.70;44.80
80232;DHT22;70197;42.124;24.752;2023-08-21T02:09:34;24.70;46.10
80232;DHT22;70197;42.124;24.752;2023-08-21T02:12:00;24.70;44.40
80232;DHT22;70197;42.124;24.752;2023-08-21T02:14:26;24.70;45.20
80232;DHT22;70197;42.124;24.752;2023-08-21T02:16:51;24.70;45.00
80232;DHT22;70197;42.124;24.752;2023-08-21T02:19:17;24.60;44.80
80232;DHT22;70197;42.124;24.752;2023-08-21T02:21:43;24.70;44.90
80232;DHT22;70197;42.124;24.752;2023-08-21T02:24:08;24.60;45.00
80232;DHT22;70197;42.124;24.752;2023-08-21T02:26:34;24.60;45.30
80232;DHT22;70197;42.124;24.752;2023-08-21T02:29:00;24.60;45.00
80232;DHT22;70197;42.124;24.752;2023-08-21T02:31:25;24.70;45.10
80232;DHT22;70197;42.124;24.752;2023-08-21T02:33:51;24.60;44.90
80232;DHT22;70197;42.124;24.752;2023-08-21T02:36:17;24.60;46.60
80232;DHT22;70197;42.124;24.752;2023-08-21T02:38:42;24.60;44.80
80232;DHT22;70197;42.124;24.752;2023-08-21T02:41:08;24.70;45.10
80232;DHT22;70197;42.124;24.752;2023-08-21T02:43:34;24.70;45.10
80232;DHT22;70197;42.124;24.752;2023-08-21T02:45:59;24.60;45.10
80232;DHT22;70197;42.124;24.752;2023-08-21T02:48:25;24.50;45.20
80232;DHT22;70197;42.124;24.752;2023-08-21T02:50:51;24.60;45.10
80232;DHT22;70197;42.124;24.752;2023-08-21T02:53:17;24.50;45.20
80232;DHT22;70197;42.124;24.752;2023-08-21T02:55:42;24.40;45.60
80232;DHT22;70197;42.124;24.752;2023-08-21T02:58:08;24.40;45.80
80232;DHT22;70197;42.124;24.752;2023-08-21T03:00:34;24.40;45.80
80232;DHT22;70197;42.124;24.752;2023-08-21T03:03:00;24.40;45.80
80232;DHT22;70197;42.124;24.752;2023-08-21T03:05:25;24.50;45.60
80232;DHT22;70197;42.124;24.752;2023-08-21T03:07:51;24.40;45.50
80232;DHT22;70197;42.124;24.752;2023-08-21T03:10:17;24.40;45.80
80232;DHT22;70197;42.124;24.752;2023-08-21T03:12:43;24.40;46.00
80232;DHT22;70197;42.124;24.752;2023-08-21T03:15:09;24.40;45.90
80232;DHT22;70197;42.124;24.752;2023-08-21T03:17:34;24.30;46.10
80232;DHT22;70197;42.124;24.752;2023-08-21T03:20:00;24.30;46.10
80232;DHT22;70197;42.124;24.752;2023-08-21T03:22:26;24.20;46.00
80232;DHT22;70197;42.124;24.752;2023-08-21T03:24:51;24.20;46.00
80232;DHT22;70197;42.124;24.752;2023-08-21T03:27:18;24.20;46.40
80232;DHT22;70197;42.124;24.752;2023-08-21T03:29:44;24.20;46.50
80232;DHT22;70197;42.124;24.752;2023-08-21T03:32:15;24.20;46.50
80232;DHT22;70197;42.124;24.752;2023-08-21T03:34:41;24.10;46.60
80232;DHT22;70197;42.124;24.752;2023-08-21T03:37:06;24.10;46.60
80232;DHT22;70197;42.124;24.752;2023-08-21T03:39:32;24.00;46.80
80232;DHT22;70197;42.124;24.752;2023-08-21T03:41:58;24.00;47.00
80232;DHT22;70197;42.124;24.752;2023-08-21T03:44:24;24.00;46.80
80232;DHT22;70197;42.124;24.752;2023-08-21T03:46:49;23.90;47.00
80232;DHT22;70197;42.124;24.752;2023-08-21T03:49:15;23.90;47.10
80232;DHT22;70197;42.124;24.752;2023-08-21T03:51:41;23.90;47.20
80232;DHT22;70197;42.124;24.752;2023-08-21T03:54:06;24.00;47.20
80232;DHT22;70197;42.124;24.752;2023-08-21T03:56:32;23.90;47.20
80232;DHT22;70197;42.124;24.752;2023-08-21T03:58:57;23.90;47.40
80232;DHT22;70197;42.124;24.752;2023-08-21T04:01:23;23.90;47.50
80232;DHT22;70197;42.124;24.752;2023-08-21T04:03:49;23.90;47.60
80232;DHT22;70197;42.124;24.752;2023-08-21T04:06:14;23.90;47.50
80232;DHT22;70197;42.124;24.752;2023-08-21T04:08:40;23.90;47.70
80232;DHT22;70197;42.124;24.752;2023-08-21T04:11:06;23.90;47.70
80232;DHT22;70197;42.124;24.752;2023-08-21T04:13:32;23.90;47.50
80232;DHT22;70197;42.124;24.752;2023-08-21T04:15:58;24.00;47.50
80232;DHT22;70197;42.124;24.752;2023-08-21T04:18:24;24.10;47.40
80232;DHT22;70197;42.124;24.752;2023-08-21T04:20:49;24.10;47.30
80232;DHT22;70197;42.124;24.752;2023-08-21T04:23:15;24.20;47.20
80232;DHT22;70197;42.124;24.752;2023-08-21T04:25:41;24.20;47.20
80232;DHT22;70197;42.124;24.752;2023-08-21T04:28:07;24.20;47.30
80232;DHT22;70197;42.124;24.752;2023-08-21T04:30:35;24.30;47.30
80232;DHT22;70197;42.124;24.752;2023-08-21T04:33:01;24.40;47.20
80232;DHT22;70197;42.124;24.752;2023-08-21T04:35:27;24.40;48.20
80232;DHT22;70197;42.124;24.752;2023-08-21T04:37:52;24.50;47.10
80232;DHT22;70197;42.124;24.752;2023-08-21T04:40:18;24.50;47.10
80232;DHT22;70197;42.124;24.752;2023-08-21T04:42:46;24.60;47.30
80232;DHT22;70197;42.124;24.752;2023-08-21T04:45:12;24.70;47.30
80232;DHT22;70197;42.124;24.752;2023-08-21T04:47:38;24.80;47.30
80232;DHT22;70197;42.124;24.752;2023-08-21T04:50:04;24.80;47.70
80232;DHT22;70197;42.124;24.752;2023-08-21T04:52:30;24.90;47.30
80232;DHT22;70197;42.124;24.752;2023-08-21T04:54:56;25.10;46.50
80232;DHT22;70197;42.124;24.752;2023-08-21T04:57:21;25.20;46.60
80232;DHT22;70197;42.124;24.752;2023-08-21T04:59:47;25.30;45.80
80232;DHT22;70197;42.124;24.752;2023-08-21T05:02:13;25.40;45.20
80232;DHT22;70197;42.124;24.752;2023-08-21T05:04:39;25.50;44.80
80232;DHT22;70197;42.124;24.752;2023-08-21T05:07:05;25.60;44.90
80232;DHT22;70197;42.124;24.752;2023-08-21T05:09:34;25.80;44.00
80232;DHT22;70197;42.124;24.752;2023-08-21T05:11:59;25.90;43.90
80232;DHT22;70197;42.124;24.752;2023-08-21T05:14:25;25.90;43.20
80232;DHT22;70197;42.124;24.752;2023-08-21T05:16:51;26.00;43.10
80232;DHT22;70197;42.124;24.752;2023-08-21T05:19:17;26.20;42.80
80232;DHT22;70197;42.124;24.752;2023-08-21T05:21:43;26.30;42.40
80232;DHT22;70197;42.124;24.752;2023-08-21T05:24:09;26.50;41.80
80232;DHT22;70197;42.124;24.752;2023-08-21T05:26:36;26.60;41.50
80232;DHT22;70197;42.124;24.752;2023-08-21T05:29:02;26.80;41.60
80232;DHT22;70197;42.124;24.752;2023-08-21T05:31:28;26.90;40.80
80232;DHT22;70197;42.124;24.752;2023-08-21T05:33:54;27.10;40.90
80232;DHT22;70197;42.124;24.752;2023-08-21T05:36:19;27.20;40.30
80232;DHT22;70197;42.124;24.752;2023-08-21T05:38:45;27.40;40.00
80232;DHT22;70197;42.124;24.752;2023-08-21T05:41:11;27.50;39.90
80232;DHT22;70197;42.124;24.752;2023-08-21T05:43:37;27.60;39.50
80232;DHT22;70197;42.124;24.752;2023-08-21T05:46:05;27.80;39.00
80232;DHT22;70197;42.124;24.752;2023-08-21T05:48:31;27.90;38.80
80232;DHT22;70197;42.124;24.752;2023-08-21T05:50:57;28.10;38.40
80232;DHT22;70197;42.124;24.752;2023-08-21T05:53:22;28.20;38.30
80232;DHT22;70197;42.124;24.752;2023-08-21T05:55:48;28.30;38.40
80232;DHT22;70197;42.124;24.752;2023-08-21T05:58:14;28.50;38.10
80232;DHT22;70197;42.124;24.752;2023-08-21T06:00:39;28.60;37.60
80232;DHT22;70197;42.124;24.752;2023-08-21T06:03:05;28.60;37.20
80232;DHT22;70197;42.124;24.752;2023-08-21T06:05:31;28.70;36.90
80232;DHT22;70197;42.124;24.752;2023-08-21T06:07:57;28.90;36.70
80232;DHT22;70197;42.124;24.752;2023-08-21T06:10:22;29.00;36.90
80232;DHT22;70197;42.124;24.752;2023-08-21T06:12:48;29.20;36.30
80232;DHT22;70197;42.124;24.752;2023-08-21T06:15:14;29.30;35.70
80232;DHT22;70197;42.124;24.752;2023-08-21T06:17:40;29.50;35.00
80232;DHT22;70197;42.124;24.752;2023-08-21T06:20:07;29.60;34.70
80232;DHT22;70197;42.124;24.752;2023-08-21T06:22:37;29.70;33.80
80232;DHT22;70197;42.124;24.752;2023-08-21T06:25:03;29.90;33.50
80232;DHT22;70197;42.124;24.752;2023-08-21T06:27:29;30.10;34.30
80232;DHT22;70197;42.124;24.752;2023-08-21T06:29:54;30.20;32.70
80232;DHT22;70197;42.124;24.752;2023-08-21T06:32:20;30.40;32.00
80232;DHT22;70197;42.124;24.752;2023-08-21T06:34:46;30.50;31.90
80232;DHT22;70197;42.124;24.752;2023-08-21T06:37:11;30.60;31.70
80232;DHT22;70197;42.124;24.752;2023-08-21T06:39:38;30.70;31.60
80232;DHT22;70197;42.124;24.752;2023-08-21T06:42:04;30.80;31.60
80232;DHT22;70197;42.124;24.752;2023-08-21T06:44:29;31.00;31.10
80232;DHT22;70197;42.124;24.752;2023-08-21T06:46:55;31.10;30.80
80232;DHT22;70197;42.124;24.752;2023-08-21T06:49:21;31.20;30.50
80232;DHT22;70197;42.124;24.752;2023-08-21T06:51:46;31.30;30.30
80232;DHT22;70197;42.124;24.752;2023-08-21T06:54:12;31.60;30.00
80232;DHT22;70197;42.124;24.752;2023-08-21T06:56:37;31.80;29.40
80232;DHT22;70197;42.124;24.752;2023-08-21T06:59:03;31.90;29.40
80232;DHT22;70197;42.124;24.752;2023-08-21T07:01:29;32.00;29.30
80232;DHT22;70197;42.124;24.752;2023-08-21T07:03:55;32.20;29.20
80232;DHT22;70197;42.124;24.752;2023-08-21T07:06:20;32.30;29.10
80232;DHT22;70197;42.124;24.752;2023-08-21T07:08:46;32.40;28.80
80232;DHT22;70197;42.124;24.752;2023-08-21T07:11:12;32.40;29.10
80232;DHT22;70197;42.124;24.752;2023-08-21T07:13:38;32.50;28.60
80232;DHT22;70197;42.124;24.752;2023-08-21T07:16:04;32.60;28.40
80232;DHT22;70197;42.124;24.752;2023-08-21T07:18:35;32.70;28.50
80232;DHT22;70197;42.124;24.752;2023-08-21T07:21:01;32.90;27.90
80232;DHT22;70197;42.124;24.752;2023-08-21T07:23:28;33.00;27.70
80232;DHT22;70197;42.124;24.752;2023-08-21T07:25:54;33.20;27.50
80232;DHT22;70197;42.124;24.752;2023-08-21T07:28:20;33.20;27.50
80232;DHT22;70197;42.124;24.752;2023-08-21T07:30:45;33.30;27.30
80232;DHT22;70197;42.124;24.752;2023-08-21T07:33:12;33.40;27.40
80232;DHT22;70197;42.124;24.752;2023-08-21T07:35:38;33.40;27.10
80232;DHT22;70197;42.124;24.752;2023-08-21T07:38:03;33.50;26.70
80232;DHT22;70197;42.124;24.752;2023-08-21T07:40:29;33.60;26.70
80232;DHT22;70197;42.124;24.752;2023-08-21T07:42:55;33.80;26.30
80232;DHT22;70197;42.124;24.752;2023-08-21T07:45:20;34.00;26.00
80232;DHT22;70197;42.124;24.752;2023-08-21T07:47:46;34.20;25.80
80232;DHT22;70197;42.124;24.752;2023-08-21T07:50:12;34.50;25.70
80232;DHT22;70197;42.124;24.752;2023-08-21T07:52:39;34.80;25.20
80232;DHT22;70197;42.124;24.752;2023-08-21T07:55:05;35.00;24.90
80232;DHT22;70197;42.124;24.752;2023-08-21T07:57:31;35.40;24.60
80232;DHT22;70197;42.124;24.752;2023-08-21T07:59:57;35.70;24.20
80232;DHT22;70197;42.124;24.752;2023-08-21T08:02:23;36.20;23.80
80232;DHT22;70197;42.124;24.752;2023-08-21T08:04:49;36.90;23.70
80232;DHT22;70197;42.124;24.752;2023-08-21T08:07:14;37.80;22.40
80232;DHT22;70197;42.124;24.752;2023-08-21T08:09:40;39.30;21.30
80232;DHT22;70197;42.124;24.752;2023-08-21T08:12:06;41.30;19.60
80232;DHT22;70197;42.124;24.752;2023-08-21T08:14:32;43.30;17.90
80232;DHT22;70197;42.124;24.752;2023-08-21T08:16:58;45.20;16.30
80232;DHT22;70197;42.124;24.752;2023-08-21T08:19:23;46.80;14.90
80232;DHT22;70197;42.124;24.752;2023-08-21T08:21:49;48.20;13.90
80232;DHT22;70197;42.124;24.752;2023-08-21T08:24:15;49.30;13.10
80232;DHT22;70197;42.124;24.752;2023-08-21T08:26:41;50.40;12.30
80232;DHT22;70197;42.124;24.752;2023-08-21T08:29:08;51.60;11.50
80232;DHT22;70197;42.124;24.752;2023-08-21T08:31:34;52.50;11.00
80232;DHT22;70197;42.124;24.752;2023-08-21T08:34:00;52.80;10.50
80232;DHT22;70197;42.124;24.752;2023-08-21T08:36:25;53.40;10.20
80232;DHT22;70197;42.124;24.752;2023-08-21T08:38:51;54.00;9.90
80232;DHT22;70197;42.124;24.752;2023-08-21T08:41:27;54.60;9.50
80232;DHT22;70197;42.124;24.752;2023-08-21T08:43:57;54.90;10.20
80232;DHT22;70197;42.124;24.752;2023-08-21T08:46:24;55.30;8.90
80232;DHT22;70197;42.124;24.752;2023-08-21T08:48:52;55.30;8.80
80232;DHT22;70197;42.124;24.752;2023-08-21T08:51:18;55.10;8.80
80232;DHT22;70197;42.124;24.752;2023-08-21T08:53:44;54.70;8.80
80232;DHT22;70197;42.124;24.752;2023-08-21T08:56:10;54.30;9.10
80232;DHT22;70197;42.124;24.752;2023-08-21T08:58:36;54.20;9.00
80232;DHT22;70197;42.124;24.752;2023-08-21T09:01:01;53.90;8.80
80232;DHT22;70197;42.124;24.752;2023-08-21T09:03:28;54.80;8.60
80232;DHT22;70197;42.124;24.752;2023-08-21T09:05:55;55.40;8.30
80232;DHT22;70197;42.124;24.752;2023-08-21T09:08:20;55.70;7.80
80232;DHT22;70197;42.124;24.752;2023-08-21T09:10:46;56.20;7.60
80232;DHT22;70197;42.124;24.752;2023-08-21T09:13:13;56.50;7.60
80232;DHT22;70197;42.124;24.752;2023-08-21T09:15:41;55.90;7.90
80232;DHT22;70197;42.124;24.752;2023-08-21T09:18:11;56.90;7.70
80232;DHT22;70197;42.124;24.752;2023-08-21T09:20:37;57.50;7.20
80232;DHT22;70197;42.124;24.752;2023-08-21T09:23:03;57.80;6.80
80232;DHT22;70197;42.124;24.752;2023-08-21T09:25:36;57.80;7.00
80232;DHT22;70197;42.124;24.752;2023-08-21T09:28:07;58.30;6.70
80232;DHT22;70197;42.124;24.752;2023-08-21T09:30:49;56.80;7.10
80232;DHT22;70197;42.124;24.752;2023-08-21T09:33:19;57.40;7.10
80232;DHT22;70197;42.124;24.752;2023-08-21T09:35:46;58.00;6.80
80232;DHT22;70197;42.124;24.752;2023-08-21T09:38:12;58.20;6.60
80232;DHT22;70197;42.124;24.752;2023-08-21T09:40:44;57.10;6.80
80232;DHT22;70197;42.124;24.752;2023-08-21T09:43:15;56.20;7.10
80232;DHT22;70197;42.124;24.752;2023-08-21T09:45:41;56.00;7.70
80232;DHT22;70197;42.124;24.752;2023-08-21T09:48:10;55.70;7.80
80232;DHT22;70197;42.124;24.752;2023-08-21T09:50:38;54.90;8.10
80232;DHT22;70197;42.124;24.752;2023-08-21T09:53:06;52.50;9.00
80232;DHT22;70197;42.124;24.752;2023-08-21T09:55:32;50.40;9.40
80232;DHT22;70197;42.124;24.752;2023-08-21T09:58:02;49.40;10.30
80232;DHT22;70197;42.124;24.752;2023-08-21T10:00:35;48.50;10.90
80232;DHT22;70197;42.124;24.752;2023-08-21T10:03:08;47.10;11.50
80232;DHT22;70197;42.124;24.752;2023-08-21T10:05:37;46.20;12.10
80232;DHT22;70197;42.124;24.752;2023-08-21T10:08:04;45.60;12.70
80232;DHT22;70197;42.124;24.752;2023-08-21T10:10:32;45.10;13.00
80232;DHT22;70197;42.124;24.752;2023-08-21T10:12:58;44.60;13.30
80232;DHT22;70197;42.124;24.752;2023-08-21T10:15:24;43.70;13.70
80232;DHT22;70197;42.124;24.752;2023-08-21T10:17:51;42.70;14.30
80232;DHT22;70197;42.124;24.752;2023-08-21T10:20:21;42.40;14.70
80232;DHT22;70197;42.124;24.752;2023-08-21T10:22:49;41.90;15.30
80232;DHT22;70197;42.124;24.752;2023-08-21T10:25:17;41.40;15.30
80232;DHT22;70197;42.124;24.752;2023-08-21T10:27:46;40.40;16.00
80232;DHT22;70197;42.124;24.752;2023-08-21T10:32:50;39.90;16.70
80232;DHT22;70197;42.124;24.752;2023-08-21T10:35:19;39.70;17.00
80232;DHT22;70197;42.124;24.752;2023-08-21T10:38:11;39.50;16.90
80232;DHT22;70197;42.124;24.752;2023-08-21T10:41:06;38.40;17.40
80232;DHT22;70197;42.124;24.752;2023-08-21T10:43:43;37.90;18.50
80232;DHT22;70197;42.124;24.752;2023-08-21T10:46:09;37.90;18.50
80232;DHT22;70197;42.124;24.752;2023-08-21T10:48:37;36.90;19.00
80232;DHT22;70197;42.124;24.752;2023-08-21T10:51:05;36.60;19.30
80232;DHT22;70197;42.124;24.752;2023-08-21T10:53:31;36.60;19.30
80232;DHT22;70197;42.124;24.752;2023-08-21T10:56:04;36.70;19.70
80232;DHT22;70197;42.124;24.752;2023-08-21T10:58:42;36.60;19.80
80232;DHT22;70197;42.124;24.752;2023-08-21T11:01:07;36.70;19.60
80232;DHT22;70197;42.124;24.752;2023-08-21T11:03:33;36.40;19.80
80232;DHT22;70197;42.124;24.752;2023-08-21T11:06:07;36.30;20.20
80232;DHT22;70197;42.124;24.752;2023-08-21T11:08:33;36.40;19.90
80232;DHT22;70197;42.124;24.752;2023-08-21T11:11:01;36.40;19.80
80232;DHT22;70197;42.124;24.752;2023-08-21T11:13:27;36.40;19.60
80232;DHT22;70197;42.124;24.752;2023-08-21T11:15:59;36.30;19.40
80232;DHT22;70197;42.124;24.752;2023-08-21T11:18:36;36.30;19.70
80232;DHT22;70197;42.124;24.752;2023-08-21T11:21:10;36.10;20.50
80232;DHT22;70197;42.124;24.752;2023-08-21T11:23:37;35.90;20.80
80232;DHT22;70197;42.124;24.752;2023-08-21T11:26:05;35.20;21.10
80232;DHT22;70197;42.124;24.752;2023-08-21T11:28:31;34.50;21.70
80232;DHT22;70197;42.124;24.752;2023-08-21T11:30:57;34.20;22.40
80232;DHT22;70197;42.124;24.752;2023-08-21T11:33:23;34.30;22.10
80232;DHT22;70197;42.124;24.752;2023-08-21T11:35:49;34.20;21.70
80232;DHT22;70197;42.124;24.752;2023-08-21T11:38:21;34.60;21.70
80232;DHT22;70197;42.124;24.752;2023-08-21T11:41:00;34.80;21.20
80232;DHT22;70197;42.124;24.752;2023-08-21T11:43:37;35.00;21.10
80232;DHT22;70197;42.124;24.752;2023-08-21T11:46:04;34.80;21.00
80232;DHT22;70197;42.124;24.752;2023-08-21T11:48:30;34.70;21.30
80232;DHT22;70197;42.124;24.752;2023-08-21T11:50:56;33.90;21.30
80232;DHT22;70197;42.124;24.752;2023-08-21T11:55:57;33.30;21.50
80232;DHT22;70197;42.124;24.752;2023-08-21T11:58:23;33.40;22.20
80232;DHT22;70197;42.124;24.752;2023-08-21T12:00:51;33.50;21.80
80232;DHT22;70197;42.124;24.752;2023-08-21T12:03:18;33.60;21.30
80232;DHT22;70197;42.124;24.752;2023-08-21T12:05:43;33.50;20.80
80232;DHT22;70197;42.124;24.752;2023-08-21T12:08:09;33.70;21.20
80232;DHT22;70197;42.124;24.752;2023-08-21T12:10:35;33.80;20.90
80232;DHT22;70197;42.124;24.752;2023-08-21T12:13:00;33.70;22.30
80232;DHT22;70197;42.124;24.752;2023-08-21T12:15:26;33.70;21.10
80232;DHT22;70197;42.124;24.752;2023-08-21T12:17:52;33.90;21.00
80232;DHT22;70197;42.124;24.752;2023-08-21T12:20:18;33.80;21.40
80232;DHT22;70197;42.124;24.752;2023-08-21T12:22:44;33.90;21.00
80232;DHT22;70197;42.124;24.752;2023-08-21T12:25:09;33.90;20.90
80232;DHT22;70197;42.124;24.752;2023-08-21T12:27:36;33.60;21.30
80232;DHT22;70197;42.124;24.752;2023-08-21T12:30:02;33.70;21.10
80232;DHT22;70197;42.124;24.752;2023-08-21T12:32:27;33.70;20.80
80232;DHT22;70197;42.124;24.752;2023-08-21T12:34:53;33.90;20.80
80232;DHT22;70197;42.124;24.752;2023-08-21T12:37:19;33.70;20.40
80232;DHT22;70197;42.124;24.752;2023-08-21T12:39:45;33.60;20.70
80232;DHT22;70197;42.124;24.752;2023-08-21T12:42:10;33.80;20.90
80232;DHT22;70197;42.124;24.752;2023-08-21T12:44:36;34.00;20.50
80232;DHT22;70197;42.124;24.752;2023-08-21T12:47:02;34.00;20.20
80232;DHT22;70197;42.124;24.752;2023-08-21T12:49:28;33.90;20.60
80232;DHT22;70197;42.124;24.752;2023-08-21T12:51:53;33.50;20.40
80232;DHT22;70197;42.124;24.752;2023-08-21T12:54:20;33.40;22.90
80232;DHT22;70197;42.124;24.752;2023-08-21T12:56:46;33.40;23.30
80232;DHT22;70197;42.124;24.752;2023-08-21T12:59:13;33.30;23.60
80232;DHT22;70197;42.124;24.752;2023-08-21T13:01:39;33.20;22.40
80232;DHT22;70197;42.124;24.752;2023-08-21T13:04:06;33.20;24.90
80232;DHT22;70197;42.124;24.752;2023-08-21T13:06:31;33.20;24.70
80232;DHT22;70197;42.124;24.752;2023-08-21T13:08:57;33.10;22.50
80232;DHT22;70197;42.124;24.752;2023-08-21T13:11:22;32.90;22.60
80232;DHT22;70197;42.124;24.752;2023-08-21T13:13:48;32.90;23.80
80232;DHT22;70197;42.124;24.752;2023-08-21T13:16:14;32.90;23.00
80232;DHT22;70197;42.124;24.752;2023-08-21T13:18:40;32.80;22.60
80232;DHT22;70197;42.124;24.752;2023-08-21T13:21:05;32.80;24.50
80232;DHT22;70197;42.124;24.752;2023-08-21T13:23:31;32.90;23.00
80232;DHT22;70197;42.124;24.752;2023-08-21T13:26:00;32.80;22.80
80232;DHT22;70197;42.124;24.752;2023-08-21T13:28:26;32.90;25.00
80232;DHT22;70197;42.124;24.752;2023-08-21T13:30:52;32.90;23.00
80232;DHT22;70197;42.124;24.752;2023-08-21T13:33:20;32.90;22.60
80232;DHT22;70197;42.124;24.752;2023-08-21T13:35:46;32.70;22.50
80232;DHT22;70197;42.124;24.752;2023-08-21T13:38:12;32.40;22.30
80232;DHT22;70197;42.124;24.752;2023-08-21T13:40:39;32.20;22.90
80232;DHT22;70197;42.124;24.752;2023-08-21T13:43:05;32.20;23.40
80232;DHT22;70197;42.124;24.752;2023-08-21T13:45:32;32.30;23.00
80232;DHT22;70197;42.124;24.752;2023-08-21T13:47:58;32.30;26.50
80232;DHT22;70197;42.124;24.752;2023-08-21T13:50:24;32.50;25.50
80232;DHT22;70197;42.124;24.752;2023-08-21T13:52:50;32.50;23.10
80232;DHT22;70197;42.124;24.752;2023-08-21T13:55:15;32.50;22.90
80232;DHT22;70197;42.124;24.752;2023-08-21T13:57:42;32.50;22.80
80232;DHT22;70197;42.124;24.752;2023-08-21T14:00:09;32.50;23.40
80232;DHT22;70197;42.124;24.752;2023-08-21T14:02:38;32.30;22.80
80232;DHT22;70197;42.124;24.752;2023-08-21T14:05:04;32.10;23.00
80232;DHT22;70197;42.124;24.752;2023-08-21T14:07:30;32.10;23.20
80232;DHT22;70197;42.124;24.752;2023-08-21T14:09:56;31.90;23.60
80232;DHT22;70197;42.124;24.752;2023-08-21T14:12:22;31.90;24.40
80232;DHT22;70197;42.124;24.752;2023-08-21T14:14:48;31.90;23.60
80232;DHT22;70197;42.124;24.752;2023-08-21T14:17:13;31.90;24.10
80232;DHT22;70197;42.124;24.752;2023-08-21T14:19:39;32.10;24.30
80232;DHT22;70197;42.124;24.752;2023-08-21T14:22:05;32.30;24.40
80232;DHT22;70197;42.124;24.752;2023-08-21T14:24:30;32.40;27.00
80232;DHT22;70197;42.124;24.752;2023-08-21T14:26:56;32.20;23.70
80232;DHT22;70197;42.124;24.752;2023-08-21T14:29:22;32.10;23.90
80232;DHT22;70197;42.124;24.752;2023-08-21T14:31:48;32.00;24.00
80232;DHT22;70197;42.124;24.752;2023-08-21T14:34:14;31.90;24.20
80232;DHT22;70197;42.124;24.752;2023-08-21T14:36:41;32.00;24.00
80232;DHT22;70197;42.124;24.752;2023-08-21T14:39:08;31.90;23.90
80232;DHT22;70197;42.124;24.752;2023-08-21T14:41:40;31.70;24.50
80232;DHT22;70197;42.124;24.752;2023-08-21T14:44:06;31.80;24.80
80232;DHT22;70197;42.124;24.752;2023-08-21T14:46:32;32.00;25.90
80232;DHT22;70197;42.124;24.752;2023-08-21T14:48:58;32.20;27.00
80232;DHT22;70197;42.124;24.752;2023-08-21T14:51:24;32.10;24.40
80232;DHT22;70197;42.124;24.752;2023-08-21T14:53:50;31.90;25.20
80232;DHT22;70197;42.124;24.752;2023-08-21T14:56:15;32.00;26.80
80232;DHT22;70197;42.124;24.752;2023-08-21T14:58:41;32.10;26.80
80232;DHT22;70197;42.124;24.752;2023-08-21T15:01:09;32.10;27.70
80232;DHT22;70197;42.124;24.752;2023-08-21T15:03:38;32.20;27.10
80232;DHT22;70197;42.124;24.752;2023-08-21T15:06:04;32.10;26.80
80232;DHT22;70197;42.124;24.752;2023-08-21T15:08:29;32.10;26.50
80232;DHT22;70197;42.124;24.752;2023-08-21T15:10:55;32.10;26.80
80232;DHT22;70197;42.124;24.752;2023-08-21T15:13:21;32.10;26.90
80232;DHT22;70197;42.124;24.752;2023-08-21T15:15:47;32.00;27.30
80232;DHT22;70197;42.124;24.752;2023-08-21T15:18:12;31.90;27.30
80232;DHT22;70197;42.124;24.752;2023-08-21T15:20:38;31.90;26.80